sensor_id;sensor_type;location;lat;lon;timestamp;P1;durP1;ratioP1;P2;durP2;ratioP2
2388;SDS011;1205;47.984;7.668;2023-06-10T00:01:56;9.77;;;5.00;;
2388;SDS011;1205;47.984;7.668;2023-06-10T00:04:24;6.70;;;5.53;;
2388;SDS011;1205;47.984;7.668;2023-06-10T00:06:50;5.30;;;4.90;;
2388;SDS011;1205;47.984;7.668;2023-06-10T00:09:16;6.30;;;4.67;;
2388;SDS011;1205;47.984;7.668;2023-06-10T00:11:43;4.30;;;4.10;;
2388;SDS011;1205;47.984;7.668;2023-06-10T00:14:09;5.47;;;5.10;;
2388;SDS011;1205;47.984;7.668;2023-06-10T00:16:35;5.13;;;4.47;;
2388;SDS011;1205;47.984;7.668;2023-06-10T00:19:01;7.00;;;4.83;;
2388;SDS011;1205;47.984;7.668;2023-06-10T00:21:28;7.13;;;4.90;;
2388;SDS011;1205;47.984;7.668;2023-06-10T00:24:05;5.80;;;5.13;;
2388;SDS011;1205;47.984;7.668;2023-06-10T00:26:37;5.63;;;5.23;;
2388;SDS011;1205;47.984;7.668;2023-06-10T00:29:03;4.80;;;4.47;;
2388;SDS011;1205;47.984;7.668;2023-06-10T00:31:29;5.10;;;4.70;;
2388;SDS011;1205;47.984;7.668;2023-06-10T00:33:55;5.40;;;4.90;;
2388;SDS011;1205;47.984;7.668;2023-06-10T00:36:20;4.87;;;4.40;;
2388;SDS011;1205;47.984;7.668;2023-06-10T00:38:46;4.83;;;4.50;;
2388;SDS011;1205;47.984;7.668;2023-06-10T00:41:12;5.17;;;4.77;;
2388;SDS011;1205;47.984;7.668;2023-06-10T00:43:37;4.60;;;4.20;;
2388;SDS011;1205;47.984;7.668;2023-06-10T00:46:03;6.03;;;5.23;;
2388;SDS011;1205;47.984;7.668;2023-06-10T00:48:29;7.07;;;5.00;;
2388;SDS011;1205;47.984;7.668;2023-06-10T00:50:54;4.60;;;4.30;;
2388;SDS011;1205;47.984;7.668;2023-06-10T00:53:21;8.37;;;4.97;;
2388;SDS011;1205;47.984;7.668;2023-06-10T00:55:47;5.33;;;4.93;;
2388;SDS011;1205;47.984;7.668;2023-06-10T00:58:13;5.03;;;4.73;;
2388;SDS011;1205;47.984;7.668;2023-06-10T01:00:39;5.37;;;5.00;;
2388;SDS011;1205;47.984;7.668;2023-06-10T01:03:04;5.30;;;4.80;;
2388;SDS011;1205;47.984;7.668;2023-06-10T01:05:34;5.30;;;4.80;;
2388;SDS011;1205;47.984;7.668;2023-06-10T01:08:09;4.90;;;4.50;;
2388;SDS011;1205;47.984;7.668;2023-06-10T01:10:59;4.83;;;4.03;;
2388;SDS011;1205;47.984;7.668;2023-06-10T01:13:27;6.60;;;4.87;;
2388;SDS011;1205;47.984;7.668;2023-06-10T01:15:54;4.60;;;4.30;;
2388;SDS011;1205;47.984;7.668;2023-06-10T01:18:21;5.33;;;4.87;;
2388;SDS011;1205;47.984;7.668;2023-06-10T01:20:46;8.77;;;4.77;;
2388;SDS011;1205;47.984;7.668;2023-06-10T01:23:14;5.17;;;4.77;;
2388;SDS011;1205;47.984;7.668;2023-06-10T01:25:45;4.70;;;4.40;;
2388;SDS011;1205;47.984;7.668;2023-06-10T01:31:12;10.10;;;5.30;;
2388;SDS011;1205;47.984;7.668;2023-06-10T01:33:45;6.67;;;5.50;;
2388;SDS011;1205;47.984;7.668;2023-06-10T01:36:12;5.53;;;4.80;;
2388;SDS011;1205;47.984;7.668;2023-06-10T01:38:41;5.33;;;4.80;;
2388;SDS011;1205;47.984;7.668;2023-06-10T01:41:09;6.30;;;4.93;;
2388;SDS011;1205;47.984;7.668;2023-06-10T01:43:37;5.50;;;4.60;;
2388;SDS011;1205;47.984;7.668;2023-06-10T01:46:03;5.90;;;5.30;;
2388;SDS011;1205;47.984;7.668;2023-06-10T01:48:29;5.40;;;4.90;;
2388;SDS011;1205;47.984;7.668;2023-06-10T01:50:54;8.20;;;4.90;;
2388;SDS011;1205;47.984;7.668;2023-06-10T01:53:21;7.70;;;5.17;;
2388;SDS011;1205;47.984;7.668;2023-06-10T01:55:47;6.10;;;5.20;;
2388;SDS011;1205;47.984;7.668;2023-06-10T01:58:13;7.13;;;4.83;;
2388;SDS011;1205;47.984;7.668;2023-06-10T02:00:38;5.60;;;5.00;;
2388;SDS011;1205;47.984;7.668;2023-06-10T02:03:04;6.03;;;4.97;;
2388;SDS011;1205;47.984;7.668;2023-06-10T02:05:30;6.50;;;5.10;;
2388;SDS011;1205;47.984;7.668;2023-06-10T02:07:55;8.33;;;5.80;;
2388;SDS011;1205;47.984;7.668;2023-06-10T02:10:21;6.13;;;5.63;;
2388;SDS011;1205;47.984;7.668;2023-06-10T02:12:47;7.53;;;5.80;;
2388;SDS011;1205;47.984;7.668;2023-06-10T02:15:12;17.07;;;11.57;;
2388;SDS011;1205;47.984;7.668;2023-06-10T02:17:38;20.40;;;13.50;;
2388;SDS011;1205;47.984;7.668;2023-06-10T02:20:04;10.20;;;8.30;;
2388;SDS011;1205;47.984;7.668;2023-06-10T02:22:32;7.30;;;6.70;;
2388;SDS011;1205;47.984;7.668;2023-06-10T02:24:58;7.20;;;5.60;;
2388;SDS011;1205;47.984;7.668;2023-06-10T02:27:23;9.07;;;6.03;;
2388;SDS011;1205;47.984;7.668;2023-06-10T02:29:49;5.47;;;5.07;;
2388;SDS011;1205;47.984;7.668;2023-06-10T02:32:15;6.17;;;5.40;;
2388;SDS011;1205;47.984;7.668;2023-06-10T02:34:40;5.90;;;5.40;;
2388;SDS011;1205;47.984;7.668;2023-06-10T02:37:07;4.63;;;4.20;;
2388;SDS011;1205;47.984;7.668;2023-06-10T02:39:33;5.63;;;5.00;;
2388;SDS011;1205;47.984;7.668;2023-06-10T02:41:58;5.77;;;5.30;;
2388;SDS011;1205;47.984;7.668;2023-06-10T02:44:24;7.37;;;5.37;;
2388;SDS011;1205;47.984;7.668;2023-06-10T02:46:50;5.30;;;4.83;;
2388;SDS011;1205;47.984;7.668;2023-06-10T02:49:16;5.03;;;4.60;;
2388;SDS011;1205;47.984;7.668;2023-06-10T02:51:41;5.43;;;4.93;;
2388;SDS011;1205;47.984;7.668;2023-06-10T02:54:07;5.77;;;5.27;;
2388;SDS011;1205;47.984;7.668;2023-06-10T02:56:32;5.77;;;5.27;;
2388;SDS011;1205;47.984;7.668;2023-06-10T02:58:58;5.43;;;4.93;;
2388;SDS011;1205;47.984;7.668;2023-06-10T03:01:25;7.57;;;5.13;;
2388;SDS011;1205;47.984;7.668;2023-06-10T03:03:51;5.10;;;4.70;;
2388;SDS011;1205;47.984;7.668;2023-06-10T03:06:17;6.10;;;5.50;;
2388;SDS011;1205;47.984;7.668;2023-06-10T03:08:43;5.60;;;5.10;;
2388;SDS011;1205;47.984;7.668;2023-06-10T03:11:10;5.07;;;4.67;;
2388;SDS011;1205;47.984;7.668;2023-06-10T03:13:36;5.50;;;5.00;;
2388;SDS011;1205;47.984;7.668;2023-06-10T03:16:03;12.67;;;4.93;;
2388;SDS011;1205;47.984;7.668;2023-06-10T03:18:29;5.77;;;5.23;;
2388;SDS011;1205;47.984;7.668;2023-06-10T03:20:55;5.60;;;5.10;;
2388;SDS011;1205;47.984;7.668;2023-06-10T03:23:21;9.40;;;5.50;;
2388;SDS011;1205;47.984;7.668;2023-06-10T03:25:48;5.30;;;4.90;;
2388;SDS011;1205;47.984;7.668;2023-06-10T03:28:13;5.80;;;5.20;;
2388;SDS011;1205;47.984;7.668;2023-06-10T03:30:39;7.90;;;4.70;;
2388;SDS011;1205;47.984;7.668;2023-06-10T03:33:05;10.30;;;5.30;;
2388;SDS011;1205;47.984;7.668;2023-06-10T03:35:30;9.40;;;5.10;;
2388;SDS011;1205;47.984;7.668;2023-06-10T03:37:57;6.13;;;5.00;;
2388;SDS011;1205;47.984;7.668;2023-06-10T03:40:23;6.10;;;4.83;;
2388;SDS011;1205;47.984;7.668;2023-06-10T03:42:49;5.40;;;4.90;;
2388;SDS011;1205;47.984;7.668;2023-06-10T03:45:15;5.67;;;4.90;;
2388;SDS011;1205;47.984;7.668;2023-06-10T03:47:40;5.63;;;4.90;;
2388;SDS011;1205;47.984;7.668;2023-06-10T03:50:06;6.43;;;5.60;;
2388;SDS011;1205;47.984;7.668;2023-06-10T03:52:35;6.90;;;4.90;;
2388;SDS011;1205;47.984;7.668;2023-06-10T03:55:03;5.80;;;5.07;;
2388;SDS011;1205;47.984;7.668;2023-06-10T03:57:28;6.10;;;4.90;;
2388;SDS011;1205;47.984;7.668;2023-06-10T03:59:54;6.87;;;5.87;;
2388;SDS011;1205;47.984;7.668;2023-06-10T04:02:21;6.30;;;5.37;;
2388;SDS011;1205;47.984;7.668;2023-06-10T04:04:47;6.13;;;5.00;;
2388;SDS011;1205;47.984;7.668;2023-06-10T04:07:13;5.63;;;5.17;;
2388;SDS011;1205;47.984;7.668;2023-06-10T04:09:39;5.93;;;5.40;;
2388;SDS011;1205;47.984;7.668;2023-06-10T04:12:05;6.00;;;5.53;;
2388;SDS011;1205;47.984;7.668;2023-06-10T04:14:33;6.23;;;5.67;;
2388;SDS011;1205;47.984;7.668;2023-06-10T04:17:01;7.10;;;6.47;;
2388;SDS011;1205;47.984;7.668;2023-06-10T04:19:27;7.70;;;6.33;;
2388;SDS011;1205;47.984;7.668;2023-06-10T04:21:53;6.27;;;5.77;;
2388;SDS011;1205;47.984;7.668;2023-06-10T04:24:19;6.00;;;5.10;;
2388;SDS011;1205;47.984;7.668;2023-06-10T04:26:44;7.10;;;6.50;;
2388;SDS011;1205;47.984;7.668;2023-06-10T04:29:10;6.40;;;5.80;;
2388;SDS011;1205;47.984;7.668;2023-06-10T04:31:35;6.63;;;6.03;;
2388;SDS011;1205;47.984;7.668;2023-06-10T04:34:01;10.33;;;6.37;;
2388;SDS011;1205;47.984;7.668;2023-06-10T04:36:27;5.50;;;5.10;;
2388;SDS011;1205;47.984;7.668;2023-06-10T04:38:54;5.97;;;5.57;;
2388;SDS011;1205;47.984;7.668;2023-06-10T04:41:19;7.57;;;6.33;;
2388;SDS011;1205;47.984;7.668;2023-06-10T04:43:45;6.27;;;5.60;;
2388;SDS011;1205;47.984;7.668;2023-06-10T04:46:11;8.47;;;5.00;;
2388;SDS011;1205;47.984;7.668;2023-06-10T04:48:38;5.73;;;5.20;;
2388;SDS011;1205;47.984;7.668;2023-06-10T04:51:04;7.80;;;5.07;;
2388;SDS011;1205;47.984;7.668;2023-06-10T04:53:30;5.70;;;5.17;;
2388;SDS011;1205;47.984;7.668;2023-06-10T04:55:56;6.13;;;5.30;;
2388;SDS011;1205;47.984;7.668;2023-06-10T04:58:22;5.40;;;4.90;;
2388;SDS011;1205;47.984;7.668;2023-06-10T05:00:48;6.53;;;4.80;;
2388;SDS011;1205;47.984;7.668;2023-06-10T05:03:14;5.00;;;4.60;;
2388;SDS011;1205;47.984;7.668;2023-06-10T05:05:40;5.73;;;5.33;;
2388;SDS011;1205;47.984;7.668;2023-06-10T05:08:05;7.60;;;5.10;;
2388;SDS011;1205;47.984;7.668;2023-06-10T05:10:31;5.60;;;5.10;;
2388;SDS011;1205;47.984;7.668;2023-06-10T05:12:57;5.60;;;5.10;;
2388;SDS011;1205;47.984;7.668;2023-06-10T05:15:23;11.37;;;5.77;;
2388;SDS011;1205;47.984;7.668;2023-06-10T05:17:49;7.30;;;5.53;;
2388;SDS011;1205;47.984;7.668;2023-06-10T05:20:15;5.17;;;4.70;;
2388;SDS011;1205;47.984;7.668;2023-06-10T05:22:41;4.70;;;4.40;;
2388;SDS011;1205;47.984;7.668;2023-06-10T05:25:06;5.17;;;4.40;;
2388;SDS011;1205;47.984;7.668;2023-06-10T05:27:32;5.43;;;4.60;;
2388;SDS011;1205;47.984;7.668;2023-06-10T05:29:58;4.10;;;3.80;;
2388;SDS011;1205;47.984;7.668;2023-06-10T05:32:24;4.73;;;4.43;;
2388;SDS011;1205;47.984;7.668;2023-06-10T05:34:50;6.13;;;4.00;;
2388;SDS011;1205;47.984;7.668;2023-06-10T05:37:15;5.30;;;4.73;;
2388;SDS011;1205;47.984;7.668;2023-06-10T05:39:41;7.40;;;4.77;;
2388;SDS011;1205;47.984;7.668;2023-06-10T05:42:06;6.93;;;4.50;;
2388;SDS011;1205;47.984;7.668;2023-06-10T05:44:33;6.73;;;5.00;;
2388;SDS011;1205;47.984;7.668;2023-06-10T05:46:59;6.70;;;4.67;;
2388;SDS011;1205;47.984;7.668;2023-06-10T05:49:24;5.60;;;5.10;;
2388;SDS011;1205;47.984;7.668;2023-06-10T05:51:50;5.10;;;4.70;;
2388;SDS011;1205;47.984;7.668;2023-06-10T05:54:17;5.00;;;4.50;;
2388;SDS011;1205;47.984;7.668;2023-06-10T05:56:43;5.23;;;4.60;;
2388;SDS011;1205;47.984;7.668;2023-06-10T05:59:09;5.20;;;4.70;;
2388;SDS011;1205;47.984;7.668;2023-06-10T06:01:34;8.60;;;5.33;;
2388;SDS011;1205;47.984;7.668;2023-06-10T06:04:00;6.00;;;5.43;;
2388;SDS011;1205;47.984;7.668;2023-06-10T06:06:26;9.17;;;5.10;;
2388;SDS011;1205;47.984;7.668;2023-06-10T06:08:51;8.50;;;4.93;;
2388;SDS011;1205;47.984;7.668;2023-06-10T06:11:17;9.77;;;5.33;;
2388;SDS011;1205;47.984;7.668;2023-06-10T06:13:42;5.50;;;5.00;;
2388;SDS011;1205;47.984;7.668;2023-06-10T06:16:08;5.30;;;4.90;;
2388;SDS011;1205;47.984;7.668;2023-06-10T06:18:33;5.80;;;4.80;;
2388;SDS011;1205;47.984;7.668;2023-06-10T06:20:59;5.37;;;5.00;;
2388;SDS011;1205;47.984;7.668;2023-06-10T06:23:25;5.23;;;4.83;;
2388;SDS011;1205;47.984;7.668;2023-06-10T06:25:50;5.23;;;4.73;;
2388;SDS011;1205;47.984;7.668;2023-06-10T06:28:16;7.87;;;4.63;;
2388;SDS011;1205;47.984;7.668;2023-06-10T06:30:43;5.00;;;4.67;;
2388;SDS011;1205;47.984;7.668;2023-06-10T06:33:09;5.63;;;5.30;;
2388;SDS011;1205;47.984;7.668;2023-06-10T06:35:35;7.40;;;4.73;;
2388;SDS011;1205;47.984;7.668;2023-06-10T06:38:03;5.43;;;4.90;;
2388;SDS011;1205;47.984;7.668;2023-06-10T06:40:29;15.03;;;4.63;;
2388;SDS011;1205;47.984;7.668;2023-06-10T06:42:54;5.63;;;5.20;;
2388;SDS011;1205;47.984;7.668;2023-06-10T06:45:20;5.60;;;5.10;;
2388;SDS011;1205;47.984;7.668;2023-06-10T06:47:46;9.83;;;4.60;;
2388;SDS011;1205;47.984;7.668;2023-06-10T06:50:11;4.90;;;4.60;;
2388;SDS011;1205;47.984;7.668;2023-06-10T06:52:37;7.03;;;4.70;;
2388;SDS011;1205;47.984;7.668;2023-06-10T06:55:02;7.10;;;4.70;;
2388;SDS011;1205;47.984;7.668;2023-06-10T06:57:28;5.60;;;5.20;;
2388;SDS011;1205;47.984;7.668;2023-06-10T06:59:53;5.50;;;5.10;;
2388;SDS011;1205;47.984;7.668;2023-06-10T07:02:19;6.10;;;5.47;;
2388;SDS011;1205;47.984;7.668;2023-06-10T07:04:45;6.00;;;5.43;;
2388;SDS011;1205;47.984;7.668;2023-06-10T07:07:13;5.90;;;5.40;;
2388;SDS011;1205;47.984;7.668;2023-06-10T07:09:38;5.40;;;5.00;;
2388;SDS011;1205;47.984;7.668;2023-06-10T07:12:04;5.07;;;4.63;;
2388;SDS011;1205;47.984;7.668;2023-06-10T07:14:30;5.97;;;5.47;;
2388;SDS011;1205;47.984;7.668;2023-06-10T07:16:56;5.17;;;4.83;;
2388;SDS011;1205;47.984;7.668;2023-06-10T07:19:21;5.17;;;4.83;;
2388;SDS011;1205;47.984;7.668;2023-06-10T07:21:47;8.47;;;3.93;;
2388;SDS011;1205;47.984;7.668;2023-06-10T07:24:12;5.40;;;4.63;;
2388;SDS011;1205;47.984;7.668;2023-06-10T07:26:38;6.93;;;4.80;;
2388;SDS011;1205;47.984;7.668;2023-06-10T07:29:03;5.70;;;5.30;;
2388;SDS011;1205;47.984;7.668;2023-06-10T07:31:29;5.30;;;4.80;;
2388;SDS011;1205;47.984;7.668;2023-06-10T07:33:55;18.80;;;6.20;;
2388;SDS011;1205;47.984;7.668;2023-06-10T07:36:20;5.53;;;5.03;;
2388;SDS011;1205;47.984;7.668;2023-06-10T07:38:46;13.23;;;5.27;;
2388;SDS011;1205;47.984;7.668;2023-06-10T07:41:12;5.80;;;5.30;;
2388;SDS011;1205;47.984;7.668;2023-06-10T07:43:37;7.73;;;5.37;;
2388;SDS011;1205;47.984;7.668;2023-06-10T07:46:03;6.20;;;5.70;;
2388;SDS011;1205;47.984;7.668;2023-06-10T07:48:30;8.13;;;5.27;;
2388;SDS011;1205;47.984;7.668;2023-06-10T07:50:56;10.70;;;6.00;;
2388;SDS011;1205;47.984;7.668;2023-06-10T07:53:21;10.93;;;5.40;;
2388;SDS011;1205;47.984;7.668;2023-06-10T07:55:47;8.83;;;5.20;;
2388;SDS011;1205;47.984;7.668;2023-06-10T07:58:12;10.97;;;5.83;;
2388;SDS011;1205;47.984;7.668;2023-06-10T08:00:38;5.63;;;5.03;;
2388;SDS011;1205;47.984;7.668;2023-06-10T08:03:04;5.17;;;4.67;;
2388;SDS011;1205;47.984;7.668;2023-06-10T08:05:29;5.60;;;4.60;;
2388;SDS011;1205;47.984;7.668;2023-06-10T08:07:55;4.60;;;4.40;;
2388;SDS011;1205;47.984;7.668;2023-06-10T08:10:21;5.67;;;5.00;;
2388;SDS011;1205;47.984;7.668;2023-06-10T08:12:46;11.70;;;4.73;;
2388;SDS011;1205;47.984;7.668;2023-06-10T08:15:12;22.53;;;6.73;;
2388;SDS011;1205;47.984;7.668;2023-06-10T08:17:38;5.43;;;4.60;;
2388;SDS011;1205;47.984;7.668;2023-06-10T08:20:04;6.70;;;5.10;;
2388;SDS011;1205;47.984;7.668;2023-06-10T08:22:31;5.50;;;4.90;;
2388;SDS011;1205;47.984;7.668;2023-06-10T08:24:56;6.10;;;4.50;;
2388;SDS011;1205;47.984;7.668;2023-06-10T08:27:22;5.17;;;4.87;;
2388;SDS011;1205;47.984;7.668;2023-06-10T08:29:47;7.77;;;5.47;;
2388;SDS011;1205;47.984;7.668;2023-06-10T08:32:13;11.33;;;5.60;;
2388;SDS011;1205;47.984;7.668;2023-06-10T08:34:39;5.50;;;5.00;;
2388;SDS011;1205;47.984;7.668;2023-06-10T08:37:05;14.03;;;5.37;;
2388;SDS011;1205;47.984;7.668;2023-06-10T08:39:31;5.60;;;5.10;;
2388;SDS011;1205;47.984;7.668;2023-06-10T08:44:28;5.47;;;5.03;;
2388;SDS011;1205;47.984;7.668;2023-06-10T08:47:00;5.33;;;4.93;;
2388;SDS011;1205;47.984;7.668;2023-06-10T08:49:45;6.20;;;5.70;;
2388;SDS011;1205;47.984;7.668;2023-06-10T08:52:17;9.00;;;6.03;;
2388;SDS011;1205;47.984;7.668;2023-06-10T08:54:47;6.17;;;5.60;;
2388;SDS011;1205;47.984;7.668;2023-06-10T08:57:34;11.40;;;5.20;;
2388;SDS011;1205;47.984;7.668;2023-06-10T09:00:00;8.13;;;5.30;;
2388;SDS011;1205;47.984;7.668;2023-06-10T09:02:27;8.93;;;6.53;;
2388;SDS011;1205;47.984;7.668;2023-06-10T09:04:52;11.23;;;6.20;;
2388;SDS011;1205;47.984;7.668;2023-06-10T09:07:20;9.53;;;5.90;;
2388;SDS011;1205;47.984;7.668;2023-06-10T09:09:46;7.13;;;5.43;;
2388;SDS011;1205;47.984;7.668;2023-06-10T09:12:14;7.70;;;4.60;;
2388;SDS011;1205;47.984;7.668;2023-06-10T09:14:40;7.50;;;5.60;;
2388;SDS011;1205;47.984;7.668;2023-06-10T09:17:09;8.83;;;6.00;;
2388;SDS011;1205;47.984;7.668;2023-06-10T09:19:35;6.33;;;5.83;;
2388;SDS011;1205;47.984;7.668;2023-06-10T09:22:01;9.13;;;6.20;;
2388;SDS011;1205;47.984;7.668;2023-06-10T09:24:27;15.10;;;6.50;;
2388;SDS011;1205;47.984;7.668;2023-06-10T09:27:11;7.93;;;7.23;;
2388;SDS011;1205;47.984;7.668;2023-06-10T09:29:53;9.23;;;6.97;;
2388;SDS011;1205;47.984;7.668;2023-06-10T09:32:20;6.13;;;5.67;;
2388;SDS011;1205;47.984;7.668;2023-06-10T09:34:46;8.07;;;6.80;;
2388;SDS011;1205;47.984;7.668;2023-06-10T09:37:13;8.37;;;7.00;;
2388;SDS011;1205;47.984;7.668;2023-06-10T09:39:47;10.53;;;6.50;;
2388;SDS011;1205;47.984;7.668;2023-06-10T09:42:27;10.57;;;7.27;;
2388;SDS011;1205;47.984;7.668;2023-06-10T09:44:52;7.27;;;6.67;;
2388;SDS011;1205;47.984;7.668;2023-06-10T09:47:21;6.70;;;6.10;;
2388;SDS011;1205;47.984;7.668;2023-06-10T09:49:50;7.43;;;6.80;;
2388;SDS011;1205;47.984;7.668;2023-06-10T09:52:22;8.20;;;7.50;;
2388;SDS011;1205;47.984;7.668;2023-06-10T09:54:48;9.20;;;6.87;;
2388;SDS011;1205;47.984;7.668;2023-06-10T09:57:15;7.70;;;7.00;;
2388;SDS011;1205;47.984;7.668;2023-06-10T09:59:42;8.03;;;6.87;;
2388;SDS011;1205;47.984;7.668;2023-06-10T10:02:13;7.97;;;7.37;;
2388;SDS011;1205;47.984;7.668;2023-06-10T10:04:40;15.10;;;6.97;;
2388;SDS011;1205;47.984;7.668;2023-06-10T10:07:05;8.17;;;7.03;;
2388;SDS011;1205;47.984;7.668;2023-06-10T10:09:32;8.63;;;7.63;;
2388;SDS011;1205;47.984;7.668;2023-06-10T10:11:58;7.93;;;7.33;;
2388;SDS011;1205;47.984;7.668;2023-06-10T10:14:26;9.57;;;8.73;;
2388;SDS011;1205;47.984;7.668;2023-06-10T10:16:56;7.70;;;6.90;;
2388;SDS011;1205;47.984;7.668;2023-06-10T10:19:28;12.80;;;8.23;;
2388;SDS011;1205;47.984;7.668;2023-06-10T10:22:01;7.97;;;7.27;;
2388;SDS011;1205;47.984;7.668;2023-06-10T10:24:33;8.63;;;7.93;;
2388;SDS011;1205;47.984;7.668;2023-06-10T10:27:01;13.57;;;7.33;;
2388;SDS011;1205;47.984;7.668;2023-06-10T10:32:04;8.53;;;7.63;;
2388;SDS011;1205;47.984;7.668;2023-06-10T10:37:06;7.73;;;7.10;;
2388;SDS011;1205;47.984;7.668;2023-06-10T10:39:33;8.33;;;7.50;;
2388;SDS011;1205;47.984;7.668;2023-06-10T10:42:00;7.67;;;6.90;;
2388;SDS011;1205;47.984;7.668;2023-06-10T10:44:28;8.10;;;6.93;;
2388;SDS011;1205;47.984;7.668;2023-06-10T10:46:54;12.83;;;7.00;;
2388;SDS011;1205;47.984;7.668;2023-06-10T10:49:22;9.87;;;6.70;;
2388;SDS011;1205;47.984;7.668;2023-06-10T10:51:56;8.80;;;7.67;;
2388;SDS011;1205;47.984;7.668;2023-06-10T10:54:29;13.03;;;7.13;;
2388;SDS011;1205;47.984;7.668;2023-06-10T10:59:57;7.30;;;6.73;;
2388;SDS011;1205;47.984;7.668;2023-06-10T11:05:06;8.17;;;7.57;;
2388;SDS011;1205;47.984;7.668;2023-06-10T11:07:32;7.63;;;7.03;;
2388;SDS011;1205;47.984;7.668;2023-06-10T11:10:17;7.73;;;7.03;;
2388;SDS011;1205;47.984;7.668;2023-06-10T11:12:53;9.30;;;7.40;;
2388;SDS011;1205;47.984;7.668;2023-06-10T11:15:23;7.03;;;6.37;;
2388;SDS011;1205;47.984;7.668;2023-06-10T11:20:51;7.43;;;6.60;;
2388;SDS011;1205;47.984;7.668;2023-06-10T11:31:20;7.77;;;7.10;;
2388;SDS011;1205;47.984;7.668;2023-06-10T11:36:20;7.37;;;6.83;;
2388;SDS011;1205;47.984;7.668;2023-06-10T11:38:46;8.37;;;7.50;;
2388;SDS011;1205;47.984;7.668;2023-06-10T11:41:11;6.87;;;6.27;;
2388;SDS011;1205;47.984;7.668;2023-06-10T11:43:40;7.40;;;6.77;;
2388;SDS011;1205;47.984;7.668;2023-06-10T11:46:08;8.90;;;6.40;;
2388;SDS011;1205;47.984;7.668;2023-06-10T11:48:34;6.73;;;6.33;;
2388;SDS011;1205;47.984;7.668;2023-06-10T11:51:00;7.40;;;6.80;;
2388;SDS011;1205;47.984;7.668;2023-06-10T11:53:25;6.93;;;6.37;;
2388;SDS011;1205;47.984;7.668;2023-06-10T11:55:51;7.87;;;7.00;;
2388;SDS011;1205;47.984;7.668;2023-06-10T11:58:22;7.90;;;7.30;;
2388;SDS011;1205;47.984;7.668;2023-06-10T12:00:48;7.03;;;6.43;;
2388;SDS011;1205;47.984;7.668;2023-06-10T12:03:24;9.20;;;6.70;;
2388;SDS011;1205;47.984;7.668;2023-06-10T12:06:01;7.27;;;6.10;;
2388;SDS011;1205;47.984;7.668;2023-06-10T12:08:29;7.20;;;6.33;;
2388;SDS011;1205;47.984;7.668;2023-06-10T12:10:55;6.77;;;6.23;;
2388;SDS011;1205;47.984;7.668;2023-06-10T12:13:22;7.30;;;6.57;;
2388;SDS011;1205;47.984;7.668;2023-06-10T12:15:51;8.80;;;6.67;;
2388;SDS011;1205;47.984;7.668;2023-06-10T12:18:17;6.40;;;5.90;;
2388;SDS011;1205;47.984;7.668;2023-06-10T12:20:49;6.20;;;5.80;;
2388;SDS011;1205;47.984;7.668;2023-06-10T12:23:18;9.13;;;6.73;;
2388;SDS011;1205;47.984;7.668;2023-06-10T12:25:51;6.80;;;6.20;;
2388;SDS011;1205;47.984;7.668;2023-06-10T12:28:17;5.97;;;5.53;;
2388;SDS011;1205;47.984;7.668;2023-06-10T12:30:45;8.80;;;6.53;;
2388;SDS011;1205;47.984;7.668;2023-06-10T12:35:49;6.80;;;6.10;;
2388;SDS011;1205;47.984;7.668;2023-06-10T12:38:22;6.60;;;6.00;;
2388;SDS011;1205;47.984;7.668;2023-06-10T12:40:50;6.53;;;5.90;;
2388;SDS011;1205;47.984;7.668;2023-06-10T12:43:19;6.23;;;5.83;;
2388;SDS011;1205;47.984;7.668;2023-06-10T12:45:46;6.67;;;6.07;;
2388;SDS011;1205;47.984;7.668;2023-06-10T12:48:16;6.93;;;5.93;;
2388;SDS011;1205;47.984;7.668;2023-06-10T12:50:49;6.90;;;5.43;;
2388;SDS011;1205;47.984;7.668;2023-06-10T12:53:23;6.57;;;5.97;;
2388;SDS011;1205;47.984;7.668;2023-06-10T12:55:50;12.00;;;5.70;;
2388;SDS011;1205;47.984;7.668;2023-06-10T12:58:16;12.80;;;5.60;;
2388;SDS011;1205;47.984;7.668;2023-06-10T13:00:41;6.10;;;5.40;;
2388;SDS011;1205;47.984;7.668;2023-06-10T13:03:08;6.00;;;5.50;;
2388;SDS011;1205;47.984;7.668;2023-06-10T13:05:35;6.07;;;5.43;;
2388;SDS011;1205;47.984;7.668;2023-06-10T13:08:07;9.80;;;5.60;;
2388;SDS011;1205;47.984;7.668;2023-06-10T13:10:35;7.73;;;5.30;;
2388;SDS011;1205;47.984;7.668;2023-06-10T13:13:01;6.13;;;5.60;;
2388;SDS011;1205;47.984;7.668;2023-06-10T13:15:30;6.10;;;5.53;;
2388;SDS011;1205;47.984;7.668;2023-06-10T13:17:56;5.30;;;5.00;;
2388;SDS011;1205;47.984;7.668;2023-06-10T13:20:22;8.83;;;5.50;;
2388;SDS011;1205;47.984;7.668;2023-06-10T13:22:47;37.53;;;7.33;;
2388;SDS011;1205;47.984;7.668;2023-06-10T13:25:14;26.97;;;7.30;;
2388;SDS011;1205;47.984;7.668;2023-06-10T13:27:39;33.97;;;7.20;;
2388;SDS011;1205;47.984;7.668;2023-06-10T13:30:07;34.73;;;7.47;;
2388;SDS011;1205;47.984;7.668;2023-06-10T13:32:34;7.33;;;5.83;;
2388;SDS011;1205;47.984;7.668;2023-06-10T13:35:01;6.80;;;5.50;;
2388;SDS011;1205;47.984;7.668;2023-06-10T13:37:26;8.23;;;5.80;;
2388;SDS011;1205;47.984;7.668;2023-06-10T13:39:52;5.60;;;5.20;;
2388;SDS011;1205;47.984;7.668;2023-06-10T13:42:18;5.93;;;5.43;;
2388;SDS011;1205;47.984;7.668;2023-06-10T13:44:44;8.67;;;5.93;;
2388;SDS011;1205;47.984;7.668;2023-06-10T13:47:09;7.03;;;6.30;;
2388;SDS011;1205;47.984;7.668;2023-06-10T13:49:35;30.03;;;7.77;;
2388;SDS011;1205;47.984;7.668;2023-06-10T13:52:01;9.27;;;6.23;;
2388;SDS011;1205;47.984;7.668;2023-06-10T13:54:27;8.20;;;5.57;;
2388;SDS011;1205;47.984;7.668;2023-06-10T13:56:53;6.43;;;5.67;;
2388;SDS011;1205;47.984;7.668;2023-06-10T13:59:18;6.30;;;5.40;;
2388;SDS011;1205;47.984;7.668;2023-06-10T14:01:45;11.73;;;6.90;;
2388;SDS011;1205;47.984;7.668;2023-06-10T14:04:11;6.90;;;5.43;;
2388;SDS011;1205;47.984;7.668;2023-06-10T14:06:36;6.83;;;6.33;;
2388;SDS011;1205;47.984;7.668;2023-06-10T14:09:02;6.30;;;5.70;;
2388;SDS011;1205;47.984;7.668;2023-06-10T14:11:28;6.53;;;5.00;;
2388;SDS011;1205;47.984;7.668;2023-06-10T14:13:54;6.10;;;5.00;;
2388;SDS011;1205;47.984;7.668;2023-06-10T14:16:23;5.40;;;5.00;;
2388;SDS011;1205;47.984;7.668;2023-06-10T14:18:49;6.93;;;5.60;;
2388;SDS011;1205;47.984;7.668;2023-06-10T14:21:16;9.53;;;5.93;;
2388;SDS011;1205;47.984;7.668;2023-06-10T14:23:42;6.50;;;5.57;;
2388;SDS011;1205;47.984;7.668;2023-06-10T14:26:08;10.00;;;6.00;;
2388;SDS011;1205;47.984;7.668;2023-06-10T14:28:34;5.10;;;4.70;;
2388;SDS011;1205;47.984;7.668;2023-06-10T14:31:00;6.50;;;5.20;;
2388;SDS011;1205;47.984;7.668;2023-06-10T14:33:26;11.23;;;5.00;;
2388;SDS011;1205;47.984;7.668;2023-06-10T14:35:51;6.30;;;5.80;;
2388;SDS011;1205;47.984;7.668;2023-06-10T14:38:17;5.20;;;4.77;;
2388;SDS011;1205;47.984;7.668;2023-06-10T14:40:43;5.07;;;4.77;;
2388;SDS011;1205;47.984;7.668;2023-06-10T14:43:08;5.03;;;4.53;;
2388;SDS011;1205;47.984;7.668;2023-06-10T14:45:38;5.53;;;5.03;;
2388;SDS011;1205;47.984;7.668;2023-06-10T14:48:05;5.10;;;4.80;;
2388;SDS011;1205;47.984;7.668;2023-06-10T14:50:31;5.33;;;4.70;;
2388;SDS011;1205;47.984;7.668;2023-06-10T14:52:57;5.60;;;4.28;;
2388;SDS011;1205;47.984;7.668;2023-06-10T14:55:23;17.13;;;5.30;;
2388;SDS011;1205;47.984;7.668;2023-06-10T14:57:49;6.00;;;4.53;;
2388;SDS011;1205;47.984;7.668;2023-06-10T15:00:15;5.40;;;5.00;;
2388;SDS011;1205;47.984;7.668;2023-06-10T15:02:44;4.97;;;4.50;;
2388;SDS011;1205;47.984;7.668;2023-06-10T15:05:12;4.70;;;4.40;;
2388;SDS011;1205;47.984;7.668;2023-06-10T15:07:40;5.10;;;4.80;;
2388;SDS011;1205;47.984;7.668;2023-06-10T15:10:05;4.40;;;4.13;;
2388;SDS011;1205;47.984;7.668;2023-06-10T15:12:31;4.97;;;4.60;;
2388;SDS011;1205;47.984;7.668;2023-06-10T15:14:57;6.10;;;5.63;;
2388;SDS011;1205;47.984;7.668;2023-06-10T15:17:22;6.00;;;4.33;;
2388;SDS011;1205;47.984;7.668;2023-06-10T15:19:48;4.77;;;4.40;;
2388;SDS011;1205;47.984;7.668;2023-06-10T15:22:13;17.43;;;13.20;;
2388;SDS011;1205;47.984;7.668;2023-06-10T15:24:39;11.10;;;9.87;;
2388;SDS011;1205;47.984;7.668;2023-06-10T15:27:05;4.87;;;4.57;;
2388;SDS011;1205;47.984;7.668;2023-06-10T15:29:31;4.57;;;4.27;;
2388;SDS011;1205;47.984;7.668;2023-06-10T15:31:57;6.10;;;4.10;;
2388;SDS011;1205;47.984;7.668;2023-06-10T15:34:22;11.33;;;4.03;;
2388;SDS011;1205;47.984;7.668;2023-06-10T15:36:48;4.50;;;4.30;;
2388;SDS011;1205;47.984;7.668;2023-06-10T15:39:14;4.37;;;4.07;;
2388;SDS011;1205;47.984;7.668;2023-06-10T15:41:39;4.60;;;4.07;;
2388;SDS011;1205;47.984;7.668;2023-06-10T15:44:05;4.43;;;4.03;;
2388;SDS011;1205;47.984;7.668;2023-06-10T15:46:30;4.50;;;4.30;;